createdAt,value
2022-12-23T00:05:04.849Z,7.95
2022-12-23T00:10:10.629Z,7.45
2022-12-23T00:15:15.936Z,8.88
2022-12-23T00:20:21.382Z,7.65
2022-12-23T00:25:45.118Z,8.50
2022-12-23T00:30:54.616Z,7.63
2022-12-23T00:36:00.330Z,7.05
2022-12-23T00:41:27.307Z,6.70
2022-12-23T00:46:32.867Z,6.90
2022-12-23T00:51:38.314Z,8.50
2022-12-23T00:56:44.044Z,7.50
2022-12-23T01:02:09.250Z,6.68
2022-12-23T01:07:14.554Z,9.70
2022-12-23T01:12:20.827Z,8.65
2022-12-23T01:17:26.155Z,7.63
2022-12-23T01:22:31.448Z,8.60
2022-12-23T01:27:36.861Z,9.25
2022-12-23T01:32:42.139Z,8.65
2022-12-23T01:37:47.428Z,8.80
2022-12-23T01:42:52.579Z,8.52
2022-12-23T01:48:16.698Z,8.63
2022-12-23T01:53:34.220Z,8.45
2022-12-23T01:58:52.853Z,8.70
2022-12-23T02:04:01.451Z,8.90
2022-12-23T02:09:37.323Z,10.25
2022-12-23T02:15:30.654Z,7.60
2022-12-23T02:20:54.473Z,11.43
2022-12-23T02:26:34.999Z,8.32
2022-12-23T02:32:14.255Z,9.63
2022-12-23T02:37:59.781Z,7.18
2022-12-23T02:43:31.478Z,8.15
2022-12-23T02:48:44.631Z,7.93
2022-12-23T02:54:00.300Z,9.43
2022-12-23T02:59:43.954Z,8.07
2022-12-23T03:04:49.257Z,10.63
2022-12-23T03:10:32.729Z,8.00
2022-12-23T03:16:21.826Z,8.13
2022-12-23T03:21:51.163Z,7.97
2022-12-23T03:27:34.042Z,7.43
2022-12-23T03:38:19.849Z,7.55
2022-12-23T03:43:50.637Z,7.30
2022-12-23T03:49:07.013Z,8.05
2022-12-23T03:54:20.246Z,7.60
2022-12-23T03:59:29.578Z,5.75
2022-12-23T04:05:00.038Z,7.88
2022-12-23T04:10:07.133Z,9.35
2022-12-23T04:15:13.360Z,5.95
2022-12-23T04:20:18.901Z,9.65
2022-12-23T04:25:24.140Z,11.77
2022-12-23T04:30:33.885Z,10.85
2022-12-23T04:35:40.373Z,10.32
2022-12-23T04:40:48.740Z,8.82
2022-12-23T04:45:53.818Z,7.88
2022-12-23T04:51:02.019Z,8.88
2022-12-23T04:56:06.125Z,8.05
2022-12-23T05:01:12.130Z,7.35
2022-12-23T05:06:17.053Z,7.40
2022-12-23T05:11:21.178Z,8.50
2022-12-23T05:16:25.563Z,7.55
2022-12-23T05:21:30.044Z,9.88
2022-12-23T05:26:36.887Z,8.25
2022-12-23T05:31:42.220Z,12.40
2022-12-23T05:36:49.180Z,9.82
2022-12-23T05:41:53.368Z,10.57
2022-12-23T05:46:57.567Z,7.57
2022-12-23T05:52:01.681Z,9.23
2022-12-23T05:57:07.139Z,8.48
2022-12-23T06:02:11.679Z,10.68
2022-12-23T06:07:15.962Z,12.18
2022-12-23T06:12:19.949Z,13.15
2022-12-23T06:17:24.144Z,10.88
2022-12-23T06:22:28.216Z,9.57
2022-12-23T06:27:32.397Z,10.18
2022-12-23T06:32:38.830Z,7.57
2022-12-23T06:37:43.427Z,9.45
2022-12-23T06:42:48.962Z,9.52
2022-12-23T06:47:53.469Z,10.60
2022-12-23T06:52:57.614Z,10.43
2022-12-23T06:58:01.980Z,7.93
2022-12-23T07:03:06.192Z,10.13
2022-12-23T07:08:10.465Z,10.77
2022-12-23T07:13:14.579Z,9.65
2022-12-23T07:18:18.576Z,11.57
2022-12-23T07:23:22.588Z,9.52
2022-12-23T07:28:26.627Z,10.35
2022-12-23T07:33:34.857Z,9.50
2022-12-23T07:38:38.936Z,8.52
2022-12-23T07:43:43.030Z,9.43
2022-12-23T07:48:47.063Z,9.93
2022-12-23T07:53:52.032Z,10.30
2022-12-23T07:58:56.612Z,8.80
2022-12-23T08:04:01.078Z,10.27
2022-12-23T08:09:07.027Z,11.02
2022-12-23T08:14:11.223Z,8.98
2022-12-23T08:19:16.153Z,9.35
2022-12-23T08:24:20.115Z,9.90
2022-12-23T08:29:24.205Z,9.75
2022-12-23T08:34:28.402Z,8.77
2022-12-23T08:39:32.519Z,9.55
2022-12-23T08:44:36.679Z,9.25
2022-12-23T08:49:42.475Z,8.20
2022-12-23T08:54:49.116Z,8.48
2022-12-23T08:59:53.192Z,8.30
2022-12-23T09:04:57.427Z,8.23
2022-12-23T09:10:01.519Z,8.15
2022-12-23T09:15:07.074Z,9.38
2022-12-23T09:20:11.556Z,11.80
2022-12-23T09:25:16.222Z,10.32
2022-12-23T09:30:20.487Z,9.02
2022-12-23T09:35:24.747Z,8.65
2022-12-23T09:40:31.404Z,7.82
2022-12-23T09:45:58.929Z,9.35
2022-12-23T09:51:04.474Z,8.30
2022-12-23T09:56:20.657Z,7.85
2022-12-23T10:01:42.951Z,8.18
2022-12-23T10:07:05.336Z,9.48
2022-12-23T10:12:28.198Z,7.05
2022-12-23T10:17:47.107Z,7.03
2022-12-23T10:22:53.211Z,6.15
2022-12-23T10:27:57.290Z,6.03
2022-12-23T10:33:24.063Z,8.23
2022-12-23T10:38:55.991Z,7.95
2022-12-23T10:44:15.165Z,6.15
2022-12-23T10:49:38.205Z,6.20
2022-12-23T10:54:44.821Z,8.65
2022-12-23T10:59:48.926Z,6.00
2022-12-23T11:04:52.826Z,6.40
2022-12-23T11:10:04.482Z,5.75
2022-12-23T11:15:34.024Z,6.88
2022-12-23T11:20:42.396Z,5.82
2022-12-23T11:25:47.288Z,7.72
2022-12-23T11:30:57.275Z,7.80
2022-12-23T11:36:17.216Z,4.93
2022-12-23T11:41:46.478Z,6.47
2022-12-23T11:46:52.823Z,5.57
2022-12-23T11:52:21.013Z,6.80
2022-12-23T11:57:48.923Z,5.63
2022-12-23T12:02:56.752Z,5.57
2022-12-23T12:08:14.815Z,5.40
2022-12-23T12:14:04.899Z,5.60
2022-12-23T12:19:21.170Z,6.32
2022-12-23T12:24:32.684Z,5.28
2022-12-23T12:29:49.774Z,4.75
2022-12-23T12:35:30.860Z,5.65
2022-12-23T12:40:43.985Z,6.57
2022-12-23T12:46:14.564Z,4.93
2022-12-23T12:51:21.500Z,6.20
2022-12-23T12:56:36.284Z,4.53
2022-12-23T13:02:02.992Z,4.63
2022-12-23T13:07:32.129Z,5.25
2022-12-23T13:13:22.282Z,5.40
2022-12-23T13:18:46.295Z,5.32
2022-12-23T13:24:16.396Z,5.45
2022-12-23T13:29:45.070Z,5.32
2022-12-23T13:35:36.715Z,6.28
2022-12-23T13:41:06.467Z,7.07
2022-12-23T13:46:28.260Z,5.68
2022-12-23T13:51:41.658Z,5.50
2022-12-23T13:57:11.406Z,6.10
2022-12-23T14:03:04.352Z,6.25
2022-12-23T14:08:28.152Z,4.97
2022-12-23T14:13:58.544Z,4.35
2022-12-23T14:19:13.907Z,5.68
2022-12-23T14:25:03.259Z,6.78
2022-12-23T14:30:48.667Z,5.82
2022-12-23T14:35:57.904Z,6.72
2022-12-23T14:41:47.513Z,6.45
2022-12-23T14:46:55.053Z,3.85
2022-12-23T14:52:44.865Z,5.80
2022-12-23T14:58:07.427Z,6.70
2022-12-23T15:03:15.347Z,6.53
2022-12-23T15:08:40.761Z,6.63
2022-12-23T15:13:47.618Z,6.25
2022-12-23T15:18:55.892Z,5.80
2022-12-23T15:24:01.481Z,4.32
2022-12-23T15:29:08.681Z,5.10
2022-12-23T15:34:24.846Z,6.00
2022-12-23T15:39:37.153Z,5.82
2022-12-23T15:44:42.439Z,4.82
2022-12-23T15:49:47.606Z,6.18
2022-12-23T15:54:56.159Z,6.25
2022-12-23T16:00:02.446Z,6.57
2022-12-23T16:05:47.841Z,7.45
2022-12-23T16:11:39.111Z,9.32
2022-12-23T16:16:44.514Z,6.57
2022-12-23T16:21:50.382Z,6.13
2022-12-23T16:26:57.183Z,6.90
2022-12-23T16:32:02.622Z,6.20
2022-12-23T16:37:08.967Z,6.88
2022-12-23T16:42:14.430Z,4.32
2022-12-23T16:47:20.645Z,5.60
2022-12-23T16:52:25.886Z,5.75
2022-12-23T16:57:31.378Z,4.78
2022-12-23T17:02:36.892Z,5.15
2022-12-23T17:07:45.413Z,5.20
2022-12-23T17:12:53.724Z,5.65
2022-12-23T17:17:59.108Z,7.47
2022-12-23T17:23:04.594Z,6.22
2022-12-23T17:28:11.689Z,7.63
2022-12-23T17:33:20.055Z,6.28
2022-12-23T17:38:25.802Z,5.50
2022-12-23T17:43:31.089Z,8.38
2022-12-23T17:48:36.652Z,5.65
2022-12-23T17:53:42.085Z,6.80
2022-12-23T17:58:49.659Z,6.05
2022-12-23T18:03:56.087Z,7.32
2022-12-23T18:09:01.546Z,5.50
2022-12-23T18:14:20.638Z,7.70
2022-12-23T18:19:26.824Z,5.13
2022-12-23T18:24:32.426Z,7.22
2022-12-23T18:29:37.789Z,4.20
2022-12-23T18:34:43.067Z,5.40
2022-12-23T18:39:48.790Z,6.30
2022-12-23T18:44:54.229Z,4.85
2022-12-23T18:49:59.577Z,3.88
2022-12-23T18:55:07.334Z,4.72
2022-12-23T19:00:16.814Z,4.07
2022-12-23T19:05:28.878Z,4.18
2022-12-23T19:10:34.705Z,4.50
2022-12-23T19:15:43.147Z,3.92
2022-12-23T19:20:49.539Z,3.97
2022-12-23T19:25:55.640Z,3.65
2022-12-23T19:31:01.194Z,4.22
2022-12-23T19:36:12.330Z,4.28
2022-12-23T19:41:18.051Z,4.72
2022-12-23T19:46:23.586Z,3.90
2022-12-23T19:51:28.814Z,3.55
2022-12-23T19:56:35.750Z,3.10
2022-12-23T20:01:41.516Z,3.35
2022-12-23T20:06:47.281Z,2.60
2022-12-23T20:11:52.677Z,2.78
2022-12-23T20:16:57.857Z,3.17
2022-12-23T20:22:03.979Z,3.30
2022-12-23T20:27:12.104Z,2.53
2022-12-23T20:32:21.551Z,2.58
2022-12-23T20:37:30.157Z,2.97
2022-12-23T20:42:35.356Z,3.00
2022-12-23T20:47:40.814Z,3.30
2022-12-23T20:52:45.783Z,3.25
2022-12-23T20:57:51.025Z,2.72
2022-12-23T21:02:57.358Z,3.42
2022-12-23T21:08:03.223Z,3.30
2022-12-23T21:13:08.480Z,3.30
2022-12-23T21:18:14.307Z,3.08
2022-12-23T21:23:20.064Z,3.03
2022-12-23T21:28:25.409Z,2.65
2022-12-23T21:33:30.896Z,3.25
2022-12-23T21:38:38.587Z,2.80
2022-12-23T21:43:44.262Z,3.08
2022-12-23T21:48:51.208Z,3.83
2022-12-23T21:53:58.655Z,2.78
2022-12-23T21:59:12.562Z,3.40
2022-12-23T22:04:18.210Z,3.97
2022-12-23T22:09:23.684Z,3.60
2022-12-23T22:14:29.077Z,4.28
2022-12-23T22:19:35.628Z,4.75
2022-12-23T22:24:41.062Z,5.60
2022-12-23T22:29:46.419Z,6.05
2022-12-23T22:34:51.871Z,5.20
2022-12-23T22:39:57.153Z,5.18
2022-12-23T22:45:02.647Z,5.65
2022-12-23T22:50:09.692Z,8.00
2022-12-23T22:55:15.077Z,6.70
2022-12-23T23:00:20.773Z,6.50
2022-12-23T23:05:26.204Z,5.05
2022-12-23T23:10:32.425Z,5.32
2022-12-23T23:15:37.825Z,6.50
2022-12-23T23:20:43.391Z,6.28
2022-12-23T23:25:49.301Z,6.50
2022-12-23T23:31:16.697Z,6.53
2022-12-23T23:36:20.789Z,6.72
2022-12-23T23:41:26.192Z,5.40
2022-12-23T23:46:32.269Z,6.43
2022-12-23T23:51:37.602Z,7.05
2022-12-23T23:56:42.960Z,7.80
